createdAt,value
2018-02-13T00:00:47.010Z,21.50
2018-02-13T00:01:49.900Z,18.50
2018-02-13T00:02:53.125Z,23.00
2018-02-13T00:03:56.031Z,18.50
2018-02-13T00:04:58.921Z,18.50
2018-02-13T00:06:01.892Z,18.50
2018-02-13T00:07:04.863Z,21.50
2018-02-13T00:08:07.742Z,18.50
2018-02-13T00:09:10.948Z,20.50
2018-02-13T00:10:13.803Z,19.50
2018-02-13T00:11:16.695Z,18.50
2018-02-13T00:12:19.544Z,23.50
2018-02-13T00:13:22.415Z,20.50
2018-02-13T00:14:25.259Z,20.50
2018-02-13T00:15:28.536Z,18.00
2018-02-13T00:16:31.554Z,20.50
2018-02-13T00:17:34.498Z,20.50
2018-02-13T00:18:37.756Z,17.50
2018-02-13T00:19:40.727Z,16.00
2018-02-13T00:20:43.768Z,19.50
2018-02-13T00:21:47.014Z,14.50
2018-02-13T00:22:50.536Z,18.00
2018-02-13T00:23:53.411Z,17.50
2018-02-13T00:24:56.355Z,20.00
2018-02-13T00:25:59.326Z,19.50
2018-02-13T00:27:02.304Z,18.00
2018-02-13T00:28:05.580Z,16.50
2018-02-13T00:29:08.587Z,17.50
2018-02-13T00:30:11.505Z,15.50
2018-02-13T00:31:14.395Z,17.50
2018-02-13T00:32:17.335Z,18.00
2018-02-13T00:33:20.239Z,15.50
2018-02-13T00:34:23.502Z,23.00
2018-02-13T00:35:26.407Z,21.00
2018-02-13T00:36:29.306Z,18.00
2018-02-13T00:37:32.297Z,17.50
2018-02-13T00:38:35.174Z,18.00
2018-02-13T00:39:38.098Z,15.50
2018-02-13T00:40:41.383Z,14.50
2018-02-13T00:41:44.376Z,16.00
2018-02-13T00:42:47.324Z,19.50
2018-02-13T00:43:50.285Z,18.00
2018-02-13T00:44:53.192Z,16.00
2018-02-13T00:45:56.154Z,17.00
2018-02-13T00:46:59.495Z,18.00
2018-02-13T00:48:02.482Z,17.00
2018-02-13T00:49:05.401Z,18.00
2018-02-13T00:50:08.317Z,14.00
2018-02-13T00:51:11.254Z,12.00
2018-02-13T00:52:14.152Z,18.50
2018-02-13T00:53:17.421Z,16.50
2018-02-13T00:54:20.361Z,20.50
2018-02-13T00:55:23.305Z,18.50
2018-02-13T00:56:26.292Z,16.00
2018-02-13T00:57:29.252Z,19.50
2018-02-13T00:58:32.260Z,15.50
2018-02-13T00:59:35.529Z,18.00
2018-02-13T01:00:38.536Z,13.50
2018-02-13T01:01:41.491Z,17.50
2018-02-13T01:02:44.404Z,20.00
2018-02-13T01:03:47.372Z,17.50
2018-02-13T01:04:50.374Z,22.50
2018-02-13T01:05:53.614Z,20.00
2018-02-13T01:06:56.592Z,17.50
2018-02-13T01:07:59.540Z,14.50
2018-02-13T01:09:02.518Z,14.00
2018-02-13T01:10:05.492Z,16.00
2018-02-13T01:11:08.458Z,14.50
2018-02-13T01:12:11.809Z,14.50
2018-02-13T01:13:14.757Z,14.00
2018-02-13T01:14:17.738Z,17.50
2018-02-13T01:15:20.680Z,17.00
2018-02-13T01:16:23.665Z,19.50
2018-02-13T01:17:26.626Z,15.50
2018-02-13T01:18:30.713Z,16.00
2018-02-13T01:19:33.602Z,17.50
2018-02-13T01:20:36.546Z,16.50
2018-02-13T01:21:39.475Z,18.00
2018-02-13T01:22:42.488Z,14.00
2018-02-13T01:23:45.464Z,17.00
2018-02-13T01:24:48.739Z,13.50
2018-02-13T01:25:51.709Z,18.00
2018-02-13T01:26:54.717Z,14.00
2018-02-13T01:27:57.653Z,16.00
2018-02-13T01:29:00.615Z,15.50
2018-02-13T01:30:03.624Z,15.50
2018-02-13T01:31:07.066Z,15.50
2018-02-13T01:32:10.094Z,15.50
2018-02-13T01:33:13.113Z,18.00
2018-02-13T01:34:16.053Z,15.50
2018-02-13T01:35:18.987Z,16.50
2018-02-13T01:36:21.927Z,18.00
2018-02-13T01:37:25.189Z,15.00
2018-02-13T01:38:28.055Z,15.00
2018-02-13T01:39:30.957Z,14.00
2018-02-13T01:40:33.889Z,12.50
2018-02-13T01:41:36.806Z,15.00
2018-02-13T01:42:39.708Z,16.00
2018-02-13T01:43:42.941Z,13.00
2018-02-13T01:44:45.804Z,18.00
2018-02-13T01:45:48.726Z,15.00
2018-02-13T01:46:51.654Z,13.50
2018-02-13T01:47:54.621Z,17.50
2018-02-13T01:48:57.560Z,15.00
2018-02-13T01:50:00.889Z,14.00
2018-02-13T01:51:03.831Z,17.50
2018-02-13T01:52:06.783Z,12.50
2018-02-13T01:53:09.734Z,15.00
2018-02-13T01:54:12.675Z,14.50
2018-02-13T01:55:15.630Z,16.00
2018-02-13T01:56:18.879Z,13.50
2018-02-13T01:57:21.816Z,11.50
2018-02-13T01:58:24.796Z,12.50
2018-02-13T01:59:27.754Z,12.50
2018-02-13T02:00:30.693Z,14.00
2018-02-13T02:01:33.643Z,16.50
2018-02-13T02:02:37.003Z,14.50
2018-02-13T02:03:39.949Z,16.00
2018-02-13T02:04:42.962Z,14.00
2018-02-13T02:05:45.899Z,12.50
2018-02-13T02:06:48.875Z,17.00
2018-02-13T02:07:51.816Z,15.50
2018-02-13T02:08:55.049Z,14.00
2018-02-13T02:09:57.935Z,15.00
2018-02-13T02:11:00.817Z,14.50
2018-02-13T02:12:03.668Z,13.00
2018-02-13T02:13:06.998Z,12.50
2018-02-13T02:14:09.825Z,12.00
2018-02-13T02:15:13.043Z,15.00
2018-02-13T02:16:15.930Z,15.50
2018-02-13T02:17:18.801Z,18.00
2018-02-13T02:18:21.695Z,16.50
2018-02-13T02:19:24.564Z,16.00
2018-02-13T02:20:27.587Z,14.00
2018-02-13T02:21:30.925Z,12.00
2018-02-13T02:22:35.496Z,12.00
2018-02-13T02:23:38.478Z,13.00
2018-02-13T02:24:41.439Z,17.00
2018-02-13T02:25:44.231Z,15.50
2018-02-13T02:26:47.029Z,15.00
2018-02-13T02:27:50.103Z,12.50
2018-02-13T02:28:52.900Z,12.50
2018-02-13T02:29:55.804Z,12.50
2018-02-13T02:30:58.683Z,10.50
2018-02-13T02:32:01.608Z,12.00
2018-02-13T02:33:04.501Z,13.50
2018-02-13T02:34:07.881Z,10.00
2018-02-13T02:35:10.805Z,13.50
2018-02-13T02:36:13.714Z,12.50
2018-02-13T02:37:16.696Z,13.50
2018-02-13T02:38:19.636Z,15.00
2018-02-13T02:39:22.577Z,11.50
2018-02-13T02:40:25.874Z,10.00
2018-02-13T02:41:28.753Z,13.50
2018-02-13T02:42:31.596Z,13.00
2018-02-13T02:43:34.469Z,10.50
2018-02-13T02:44:37.420Z,13.00
2018-02-13T02:45:40.317Z,10.00
2018-02-13T02:46:43.547Z,10.50
2018-02-13T02:47:46.609Z,8.00
2018-02-13T02:48:49.564Z,11.00
2018-02-13T02:49:52.525Z,9.50
2018-02-13T02:50:55.474Z,13.00
2018-02-13T02:51:58.418Z,12.00
2018-02-13T02:53:01.894Z,14.00
2018-02-13T02:54:04.845Z,11.00
2018-02-13T02:55:07.779Z,14.00
2018-02-13T02:56:10.798Z,11.50
2018-02-13T02:57:13.804Z,11.50
2018-02-13T02:58:16.719Z,11.50
2018-02-13T02:59:20.062Z,10.00
2018-02-13T03:00:23.064Z,10.00
2018-02-13T03:01:26.005Z,11.00
2018-02-13T03:02:28.997Z,12.00
2018-02-13T03:03:32.463Z,10.00
2018-02-13T03:04:35.437Z,10.00
2018-02-13T03:05:39.094Z,11.50
2018-02-13T03:06:42.084Z,10.00
2018-02-13T03:07:45.102Z,11.00
2018-02-13T03:08:48.090Z,12.00
2018-02-13T03:09:51.043Z,11.50
2018-02-13T03:10:54.032Z,9.50
2018-02-13T03:11:57.490Z,8.00
2018-02-13T03:13:00.470Z,7.00
2018-02-13T03:14:03.467Z,7.50
2018-02-13T03:15:06.498Z,8.50
2018-02-13T03:16:09.402Z,8.00
2018-02-13T03:17:12.286Z,6.00
2018-02-13T03:18:16.587Z,8.00
2018-02-13T03:19:19.520Z,8.00
2018-02-13T03:20:22.484Z,8.50
2018-02-13T03:21:25.374Z,8.00
2018-02-13T03:22:28.398Z,8.50
2018-02-13T03:23:31.322Z,6.00
2018-02-13T03:24:34.643Z,9.50
2018-02-13T03:25:37.574Z,10.00
2018-02-13T03:26:40.460Z,9.00
2018-02-13T03:27:43.314Z,7.50
2018-02-13T03:28:46.153Z,6.50
2018-02-13T03:29:49.044Z,6.00
2018-02-13T03:30:52.447Z,7.50
2018-02-13T03:31:55.404Z,8.50
2018-02-13T03:32:58.264Z,7.50
2018-02-13T03:34:01.103Z,8.50
2018-02-13T03:35:03.940Z,10.00
2018-02-13T03:36:06.797Z,10.00
2018-02-13T03:37:09.989Z,9.00
2018-02-13T03:38:12.824Z,8.00
2018-02-13T03:39:15.745Z,6.50
2018-02-13T03:40:18.705Z,10.00
2018-02-13T03:41:21.646Z,6.50
2018-02-13T03:42:24.570Z,7.00
2018-02-13T03:43:27.903Z,11.00
2018-02-13T03:44:30.808Z,6.00
2018-02-13T03:45:33.721Z,9.00
2018-02-13T03:46:36.662Z,8.00
2018-02-13T03:47:39.637Z,8.00
2018-02-13T03:48:42.582Z,9.50
2018-02-13T03:49:46.025Z,7.50
2018-02-13T03:50:48.980Z,6.00
2018-02-13T03:51:51.969Z,9.00
2018-02-13T03:52:54.911Z,7.50
2018-02-13T03:53:57.860Z,7.00
2018-02-13T03:55:00.824Z,6.00
2018-02-13T03:56:04.261Z,10.00
2018-02-13T03:57:07.279Z,9.50
2018-02-13T03:58:10.217Z,7.50
2018-02-13T03:59:13.168Z,8.00
2018-02-13T04:00:16.117Z,6.50
2018-02-13T04:01:19.075Z,8.00
2018-02-13T04:02:22.348Z,9.00
2018-02-13T04:03:25.279Z,8.50
2018-02-13T04:04:28.250Z,9.00
2018-02-13T04:05:31.184Z,6.50
2018-02-13T04:06:34.228Z,8.00
2018-02-13T04:07:37.195Z,8.00
2018-02-13T04:08:40.608Z,8.00
2018-02-13T04:09:43.558Z,8.00
2018-02-13T04:10:46.497Z,8.50
2018-02-13T04:11:49.426Z,7.00
2018-02-13T04:12:52.345Z,8.00
2018-02-13T04:13:55.268Z,6.50
2018-02-13T04:14:58.658Z,8.00
2018-02-13T04:16:01.660Z,7.50
2018-02-13T04:17:04.601Z,8.00
2018-02-13T04:18:08.515Z,6.00
2018-02-13T04:19:11.370Z,8.00
2018-02-13T04:20:14.216Z,8.00
2018-02-13T04:21:17.431Z,6.00
2018-02-13T04:22:20.288Z,6.00
2018-02-13T04:23:23.149Z,8.00
2018-02-13T04:24:26.089Z,6.00
2018-02-13T04:25:29.062Z,7.50
2018-02-13T04:26:31.992Z,8.00
2018-02-13T04:27:35.388Z,8.00
2018-02-13T04:28:38.360Z,8.50
2018-02-13T04:29:41.366Z,6.00
2018-02-13T04:30:44.332Z,8.00
2018-02-13T04:31:47.271Z,6.50
2018-02-13T04:32:50.200Z,6.00
2018-02-13T04:33:53.465Z,9.00
2018-02-13T04:34:56.461Z,6.50
2018-02-13T04:35:59.475Z,7.00
2018-02-13T04:37:02.418Z,7.00
2018-02-13T04:38:05.393Z,7.50
2018-02-13T04:39:08.339Z,6.00
2018-02-13T04:40:11.686Z,6.00
2018-02-13T04:41:14.677Z,8.00
2018-02-13T04:42:17.624Z,7.00
2018-02-13T04:43:20.560Z,8.50
2018-02-13T04:44:23.529Z,7.50
2018-02-13T04:45:26.558Z,5.50
2018-02-13T04:46:29.928Z,8.00
2018-02-13T04:47:32.895Z,4.00
2018-02-13T04:48:35.839Z,4.00
2018-02-13T04:49:38.801Z,6.00
2018-02-13T04:50:41.754Z,5.00
2018-02-13T04:51:44.763Z,7.00
2018-02-13T04:52:47.989Z,7.00
2018-02-13T04:53:50.942Z,6.00
2018-02-13T04:54:53.888Z,4.50
2018-02-13T04:55:56.893Z,6.00
2018-02-13T04:56:59.867Z,7.00
2018-02-13T04:58:02.806Z,8.00
2018-02-13T04:59:06.105Z,8.00
2018-02-13T05:00:08.978Z,7.00
2018-02-13T05:01:11.954Z,5.50
2018-02-13T05:02:14.924Z,6.50
2018-02-13T05:03:17.876Z,5.00
2018-02-13T05:04:20.842Z,8.00
2018-02-13T05:05:24.132Z,5.50
2018-02-13T05:06:27.046Z,6.00
2018-02-13T05:07:29.994Z,6.00
2018-02-13T05:08:32.858Z,8.00
2018-02-13T05:09:35.716Z,7.50
2018-02-13T05:10:38.569Z,4.50
2018-02-13T05:11:41.881Z,7.50
2018-02-13T05:12:44.785Z,6.00
2018-02-13T05:13:47.614Z,4.00
2018-02-13T05:14:50.457Z,6.00
2018-02-13T05:15:53.429Z,9.50
2018-02-13T05:16:56.266Z,6.00
2018-02-13T05:17:59.533Z,6.00
2018-02-13T05:19:02.409Z,5.00
2018-02-13T05:20:05.309Z,11.00
2018-02-13T05:21:08.214Z,6.00
2018-02-13T05:22:11.118Z,6.00
2018-02-13T05:23:14.022Z,8.00
2018-02-13T05:24:17.273Z,12.00
2018-02-13T05:25:20.207Z,11.00
2018-02-13T05:26:23.721Z,10.00
2018-02-13T05:27:26.682Z,9.50
2018-02-13T05:28:29.625Z,10.50
2018-02-13T05:29:32.932Z,12.50
2018-02-13T05:30:35.778Z,12.50
2018-02-13T05:31:38.616Z,9.00
2018-02-13T05:32:41.506Z,7.50
2018-02-13T05:33:44.356Z,8.50
2018-02-13T05:34:47.200Z,11.50
2018-02-13T05:35:50.436Z,10.50
2018-02-13T05:36:53.389Z,13.50
2018-02-13T05:37:56.464Z,10.00
2018-02-13T05:38:59.309Z,12.00
2018-02-13T05:40:02.167Z,11.50
2018-02-13T05:41:05.012Z,12.50
2018-02-13T05:42:08.286Z,10.50
2018-02-13T05:43:11.136Z,10.00
2018-02-13T05:44:13.991Z,12.00
2018-02-13T05:45:17.762Z,14.50
2018-02-13T05:46:20.640Z,12.00
2018-02-13T05:47:23.493Z,11.00
2018-02-13T05:48:26.778Z,8.00
2018-02-13T05:49:29.650Z,11.00
2018-02-13T05:50:32.505Z,11.00
2018-02-13T05:51:35.358Z,9.50
2018-02-13T05:52:38.193Z,12.00
2018-02-13T05:53:41.063Z,11.00
2018-02-13T05:54:44.411Z,10.00
2018-02-13T05:55:47.193Z,10.50
2018-02-13T05:56:50.081Z,10.00
2018-02-13T05:57:52.963Z,9.00
2018-02-13T05:58:55.833Z,8.50
2018-02-13T05:59:58.738Z,8.00
2018-02-13T06:01:02.090Z,6.00
2018-02-13T06:02:04.977Z,7.00
2018-02-13T06:03:07.909Z,7.50
2018-02-13T06:04:10.844Z,10.00
2018-02-13T06:05:13.797Z,9.50
2018-02-13T06:06:16.804Z,13.00
2018-02-13T06:07:20.247Z,13.50
2018-02-13T06:08:23.206Z,8.00
2018-02-13T06:09:26.200Z,9.50
2018-02-13T06:10:29.180Z,8.50
2018-02-13T06:11:32.745Z,6.00
2018-02-13T06:12:35.678Z,7.00
2018-02-13T06:13:38.964Z,9.00
2018-02-13T06:14:41.892Z,7.00
2018-02-13T06:15:44.779Z,6.00
2018-02-13T06:16:47.645Z,4.50
2018-02-13T06:17:50.540Z,8.00
2018-02-13T06:18:53.426Z,7.50
2018-02-13T06:19:56.730Z,6.50
2018-02-13T06:20:59.512Z,6.00
2018-02-13T06:22:02.321Z,5.50
2018-02-13T06:23:05.122Z,6.00
2018-02-13T06:24:07.922Z,8.00
2018-02-13T06:25:10.706Z,8.00
2018-02-13T06:26:13.958Z,9.00
2018-02-13T06:27:16.769Z,7.50
2018-02-13T06:28:19.591Z,5.50
2018-02-13T06:29:22.365Z,8.00
2018-02-13T06:30:25.169Z,4.50
2018-02-13T06:31:27.999Z,4.00
2018-02-13T06:32:30.902Z,4.00
2018-02-13T06:33:33.734Z,4.00
2018-02-13T06:34:36.722Z,4.00
2018-02-13T06:35:39.668Z,4.50
2018-02-13T06:36:42.624Z,7.00
2018-02-13T06:37:45.903Z,6.50
2018-02-13T06:38:49.636Z,6.00
2018-02-13T06:39:52.757Z,5.50
2018-02-13T06:40:55.646Z,6.00
2018-02-13T06:41:59.474Z,6.00
2018-02-13T06:43:02.405Z,6.00
2018-02-13T06:44:05.845Z,7.50
2018-02-13T06:45:08.787Z,5.50
2018-02-13T06:46:11.656Z,6.50
2018-02-13T06:47:14.589Z,6.00
2018-02-13T06:48:17.419Z,4.00
2018-02-13T06:49:20.268Z,6.00
2018-02-13T06:50:23.573Z,6.00
2018-02-13T06:51:26.452Z,6.00
2018-02-13T06:52:29.309Z,6.00
2018-02-13T06:53:32.171Z,7.00
2018-02-13T06:54:35.019Z,8.00
2018-02-13T06:55:37.946Z,6.00
2018-02-13T06:56:41.257Z,9.00
2018-02-13T06:57:44.033Z,8.00
2018-02-13T06:58:46.828Z,6.00
2018-02-13T06:59:49.638Z,8.00
2018-02-13T07:00:52.513Z,4.00
2018-02-13T07:01:55.449Z,8.50
2018-02-13T07:02:58.704Z,9.00
2018-02-13T07:04:01.706Z,6.50
2018-02-13T07:05:04.653Z,6.00
2018-02-13T07:06:07.616Z,6.00
2018-02-13T07:07:10.585Z,9.00
2018-02-13T07:08:13.550Z,8.50
2018-02-13T07:09:16.955Z,8.00
2018-02-13T07:10:19.901Z,6.00
2018-02-13T07:11:22.861Z,8.00
2018-02-13T07:12:25.811Z,7.00
2018-02-13T07:13:29.317Z,7.50
2018-02-13T07:14:32.567Z,9.50
2018-02-13T07:15:36.058Z,12.00
2018-02-13T07:16:39.073Z,16.00
2018-02-13T07:17:42.100Z,12.00
2018-02-13T07:18:45.031Z,10.00
2018-02-13T07:19:47.965Z,18.50
2018-02-13T07:20:52.186Z,18.00
2018-02-13T07:21:55.600Z,18.50
2018-02-13T07:22:58.565Z,15.50
2018-02-13T07:24:01.575Z,16.00
2018-02-13T07:25:04.515Z,22.00
2018-02-13T07:26:08.270Z,16.50
2018-02-13T07:27:11.225Z,11.00
2018-02-13T07:28:14.702Z,14.50
2018-02-13T07:29:17.732Z,17.50
2018-02-13T07:30:20.703Z,15.00
2018-02-13T07:31:23.697Z,15.50
2018-02-13T07:32:26.687Z,14.00
2018-02-13T07:33:29.652Z,15.00
2018-02-13T07:34:32.895Z,19.50
2018-02-13T07:35:35.795Z,16.00
2018-02-13T07:36:39.102Z,14.00
2018-02-13T07:37:42.057Z,14.50
2018-02-13T07:38:44.994Z,16.00
2018-02-13T07:39:47.984Z,16.00
2018-02-13T07:40:50.948Z,17.50
2018-02-13T07:41:53.892Z,13.50
2018-02-13T07:42:56.845Z,14.00
2018-02-13T07:43:59.822Z,11.00
2018-02-13T07:45:02.710Z,14.00
2018-02-13T07:46:06.052Z,14.50
2018-02-13T07:47:08.971Z,9.50
2018-02-13T07:48:11.941Z,10.00
2018-02-13T07:49:14.892Z,13.00
2018-02-13T07:50:17.875Z,10.00
2018-02-13T07:51:21.033Z,11.00
2018-02-13T07:52:24.120Z,9.50
2018-02-13T07:53:27.025Z,12.00
2018-02-13T07:54:29.929Z,15.00
2018-02-13T07:55:32.861Z,17.50
2018-02-13T07:56:35.772Z,20.00
2018-02-13T07:57:38.662Z,18.00
2018-02-13T07:58:42.048Z,18.00
2018-02-13T07:59:45.006Z,18.50
2018-02-13T08:00:48.116Z,20.00
2018-02-13T08:01:51.054Z,21.50
2018-02-13T08:02:54.022Z,19.00
2018-02-13T08:03:57.013Z,21.00
2018-02-13T08:05:00.352Z,20.00
2018-02-13T08:06:03.302Z,19.50
2018-02-13T08:07:06.221Z,14.50
2018-02-13T08:08:09.152Z,21.50
2018-02-13T08:09:12.045Z,19.00
2018-02-13T08:10:14.953Z,16.50
2018-02-13T08:11:18.359Z,18.00
2018-02-13T08:12:21.170Z,18.50
2018-02-13T08:13:24.203Z,18.00
2018-02-13T08:14:27.241Z,21.00
2018-02-13T08:15:30.239Z,19.50
2018-02-13T08:16:33.100Z,15.50
2018-02-13T08:17:36.319Z,16.00
2018-02-13T08:18:39.276Z,18.00
2018-02-13T08:19:46.797Z,18.50
2018-02-13T08:20:49.875Z,17.50
2018-02-13T08:21:55.750Z,18.00
2018-02-13T08:22:59.005Z,21.50
2018-02-13T08:24:02.214Z,17.50
2018-02-13T08:25:05.099Z,14.00
2018-02-13T08:26:07.977Z,17.50
2018-02-13T08:27:10.950Z,26.00
2018-02-13T08:28:14.030Z,23.50
2018-02-13T08:29:16.938Z,22.00
2018-02-13T08:30:20.340Z,17.00
2018-02-13T08:31:23.835Z,20.00
2018-02-13T08:32:26.818Z,22.00
2018-02-13T08:33:29.813Z,22.50
2018-02-13T08:34:33.789Z,21.00
2018-02-13T08:35:36.828Z,21.50
2018-02-13T08:36:40.959Z,20.00
2018-02-13T08:37:44.781Z,22.00
2018-02-13T08:38:47.776Z,20.50
2018-02-13T08:39:50.859Z,17.50
2018-02-13T08:40:53.888Z,19.50
2018-02-13T08:41:56.872Z,21.50
2018-02-13T08:43:00.252Z,23.00
2018-02-13T08:44:03.254Z,19.00
2018-02-13T08:45:06.250Z,19.50
2018-02-13T08:46:09.263Z,21.00
2018-02-13T08:47:12.294Z,24.00
2018-02-13T08:48:15.391Z,26.00
2018-02-13T08:49:18.977Z,26.50
2018-02-13T08:50:22.113Z,24.00
2018-02-13T08:51:25.331Z,24.00
2018-02-13T08:52:28.762Z,25.00
2018-02-13T08:53:31.688Z,26.50
2018-02-13T08:54:34.650Z,27.00
2018-02-13T08:55:38.128Z,25.50
2018-02-13T08:56:41.083Z,27.00
2018-02-13T08:57:45.516Z,26.00
2018-02-13T08:58:48.547Z,28.00
2018-02-13T08:59:51.529Z,25.00
2018-02-13T09:00:54.513Z,30.00
2018-02-13T09:01:57.849Z,34.00
2018-02-13T09:03:00.901Z,33.50
2018-02-13T09:04:03.893Z,32.00
2018-02-13T09:05:06.878Z,32.00
2018-02-13T09:06:09.889Z,35.00
2018-02-13T09:07:12.956Z,31.50
2018-02-13T09:08:16.281Z,31.00
2018-02-13T09:09:19.284Z,27.00
2018-02-13T09:10:22.302Z,34.00
2018-02-13T09:11:25.328Z,33.00
2018-02-13T09:12:28.262Z,33.00
2018-02-13T09:13:31.230Z,34.00
2018-02-13T09:14:34.562Z,37.00
2018-02-13T09:15:37.615Z,37.50
2018-02-13T09:16:40.601Z,34.50
2018-02-13T09:17:43.615Z,35.00
2018-02-13T09:18:46.600Z,33.00
2018-02-13T09:19:49.527Z,36.50
2018-02-13T09:20:52.761Z,35.50
2018-02-13T09:21:55.734Z,37.00
2018-02-13T09:22:58.774Z,31.00
2018-02-13T09:24:02.779Z,33.75
2018-02-13T09:25:05.803Z,33.75
2018-02-13T09:26:08.792Z,32.25
2018-02-13T09:27:11.773Z,31.75
2018-02-13T09:28:14.745Z,30.25
2018-02-13T09:29:17.718Z,29.25
2018-02-13T09:30:20.909Z,33.25
2018-02-13T09:31:23.816Z,30.75
2018-02-13T09:32:26.950Z,28.50
2018-02-13T09:33:30.199Z,34.75
2018-02-13T09:34:33.168Z,33.00
2018-02-13T09:35:36.108Z,30.00
2018-02-13T09:36:39.080Z,31.00
2018-02-13T09:37:42.036Z,34.00
2018-02-13T09:38:45.036Z,32.25
2018-02-13T09:39:48.453Z,32.00
2018-02-13T09:40:51.849Z,29.00
2018-02-13T09:41:54.801Z,32.75
2018-02-13T09:42:58.348Z,26.75
2018-02-13T09:44:01.430Z,31.50
2018-02-13T09:45:04.436Z,28.50
2018-02-13T09:46:07.848Z,27.00
2018-02-13T09:47:10.788Z,21.00
2018-02-13T09:48:13.822Z,22.00
2018-02-13T09:49:16.805Z,23.00
2018-02-13T09:50:19.779Z,21.00
2018-02-13T09:51:22.856Z,18.00
2018-02-13T09:52:26.389Z,22.00
2018-02-13T09:53:29.356Z,19.00
2018-02-13T09:54:32.342Z,22.50
2018-02-13T09:55:35.304Z,21.00
2018-02-13T09:56:38.265Z,18.50
2018-02-13T09:57:41.253Z,18.50
2018-02-13T09:58:44.804Z,19.00
2018-02-13T09:59:47.860Z,17.00
2018-02-13T10:00:50.817Z,6.25
2018-02-13T10:01:53.749Z,15.75
2018-02-13T10:02:56.728Z,14.00
2018-02-13T10:03:59.672Z,11.00
2018-02-13T10:05:02.904Z,10.50
2018-02-13T10:06:05.794Z,10.00
2018-02-13T10:07:08.711Z,8.00
2018-02-13T10:08:11.615Z,11.50
2018-02-13T10:09:14.589Z,12.00
2018-02-13T10:10:17.535Z,11.00
2018-02-13T10:11:20.888Z,14.00
2018-02-13T10:12:23.852Z,12.00
2018-02-13T10:13:26.839Z,12.00
2018-02-13T10:14:29.753Z,12.00
2018-02-13T10:15:32.847Z,11.00
2018-02-13T10:16:35.873Z,10.00
2018-02-13T10:17:39.388Z,9.50
2018-02-13T10:18:42.363Z,13.00
2018-02-13T10:19:45.486Z,12.00
2018-02-13T10:20:48.693Z,7.00
2018-02-13T10:21:51.805Z,6.00
2018-02-13T10:22:54.947Z,8.50
2018-02-13T10:23:58.345Z,6.00
2018-02-13T10:25:01.357Z,12.50
2018-02-13T10:26:04.367Z,8.50
2018-02-13T10:27:07.349Z,9.50
2018-02-13T10:28:10.292Z,9.50
2018-02-13T10:29:13.256Z,10.00
2018-02-13T10:30:16.559Z,8.00
2018-02-13T10:31:19.594Z,2.00
2018-02-13T10:32:22.587Z,4.00
2018-02-13T10:33:25.554Z,5.50
2018-02-13T10:34:28.510Z,4.00
2018-02-13T10:35:31.499Z,2.50
2018-02-13T10:36:34.842Z,5.00
2018-02-13T10:37:37.789Z,2.00
2018-02-13T10:38:40.753Z,2.50
2018-02-13T10:39:43.730Z,2.00
2018-02-13T10:40:46.788Z,4.00
2018-02-13T10:41:49.758Z,5.00
2018-02-13T10:42:53.156Z,2.00
2018-02-13T10:43:56.044Z,3.50
2018-02-13T10:44:59.035Z,2.00
2018-02-13T10:46:02.166Z,4.00
2018-02-13T10:47:05.549Z,3.00
2018-02-13T10:48:08.748Z,2.50
2018-02-13T10:49:12.189Z,3.00
2018-02-13T10:50:15.202Z,4.50
2018-02-13T10:51:18.207Z,2.00
2018-02-13T10:52:21.274Z,3.00
2018-02-13T10:53:24.258Z,2.00
2018-02-13T10:54:27.196Z,2.00
2018-02-13T10:55:30.752Z,2.00
2018-02-13T10:56:33.754Z,4.00
2018-02-13T10:57:36.848Z,3.00
2018-02-13T10:58:39.893Z,2.00
2018-02-13T10:59:42.930Z,2.00
2018-02-13T11:00:49.706Z,2.00
2018-02-13T11:01:56.614Z,2.00
2018-02-13T11:02:59.508Z,6.00
2018-02-13T11:04:02.423Z,4.00
2018-02-13T11:05:05.326Z,3.00
2018-02-13T11:06:08.465Z,3.50
2018-02-13T11:07:11.512Z,3.00
2018-02-13T11:08:15.397Z,2.00
2018-02-13T11:09:18.658Z,4.00
2018-02-13T11:10:21.560Z,2.00
2018-02-13T11:11:24.464Z,3.50
2018-02-13T11:12:27.744Z,3.50
2018-02-13T11:13:30.638Z,2.00
2018-02-13T11:14:34.025Z,4.00
2018-02-13T11:15:37.086Z,0.00
2018-02-13T11:16:40.098Z,4.00
2018-02-13T11:17:43.029Z,2.00
2018-02-13T11:18:46.781Z,4.00
2018-02-13T11:19:49.808Z,4.00
2018-02-13T11:20:53.524Z,2.00
2018-02-13T11:21:56.567Z,2.50
2018-02-13T11:22:59.548Z,3.00
2018-02-13T11:24:02.552Z,3.50
2018-02-13T11:25:05.528Z,1.00
2018-02-13T11:26:08.723Z,4.00
2018-02-13T11:27:12.129Z,5.50
2018-02-13T11:28:15.119Z,2.00
2018-02-13T11:29:18.175Z,4.00
2018-02-13T11:30:21.248Z,2.00
2018-02-13T11:31:24.500Z,5.50
2018-02-13T11:32:28.310Z,4.00
2018-02-13T11:33:33.572Z,4.00
2018-02-13T11:34:38.035Z,5.00
2018-02-13T11:35:42.966Z,2.50
2018-02-13T11:36:47.007Z,4.00
2018-02-13T11:37:51.931Z,2.50
2018-02-13T11:38:56.367Z,2.00
2018-02-13T11:40:01.855Z,4.00
2018-02-13T11:41:07.273Z,5.50
2018-02-13T11:42:11.565Z,7.50
2018-02-13T11:43:15.178Z,3.50
2018-02-13T11:44:18.929Z,2.00
2018-02-13T11:45:22.067Z,4.00
2018-02-13T11:46:26.681Z,3.50
2018-02-13T11:47:30.741Z,4.00
2018-02-13T11:48:34.844Z,6.50
2018-02-13T11:49:38.682Z,2.00
2018-02-13T11:50:41.682Z,4.00
2018-02-13T11:51:44.650Z,3.50
2018-02-13T11:52:48.500Z,6.00
2018-02-13T11:53:51.912Z,7.00
2018-02-13T11:54:55.014Z,3.00
2018-02-13T11:55:58.042Z,4.00
2018-02-13T11:57:01.058Z,4.00
2018-02-13T11:58:04.788Z,2.00
2018-02-13T11:59:08.487Z,4.00
2018-02-13T12:00:11.478Z,4.00
2018-02-13T12:01:14.480Z,2.00
2018-02-13T12:02:17.818Z,4.00
2018-02-13T12:03:21.649Z,8.00
2018-02-13T12:04:24.780Z,6.00
2018-02-13T12:05:28.080Z,2.00
2018-02-13T12:06:30.936Z,2.00
2018-02-13T12:07:33.898Z,6.00
2018-02-13T12:08:36.800Z,4.00
2018-02-13T12:09:39.736Z,2.50
2018-02-13T12:10:42.781Z,4.00
2018-02-13T12:11:46.971Z,4.50
2018-02-13T12:12:50.007Z,2.50
2018-02-13T12:13:52.997Z,4.00
2018-02-13T12:14:56.087Z,5.00
2018-02-13T12:15:59.763Z,8.00
2018-02-13T12:17:04.036Z,9.00
2018-02-13T12:18:08.753Z,4.00
2018-02-13T12:19:12.154Z,4.00
2018-02-13T12:20:15.527Z,4.50
2018-02-13T12:21:19.000Z,7.50
2018-02-13T12:22:23.081Z,10.00
2018-02-13T12:23:28.339Z,3.00
2018-02-13T12:24:33.590Z,3.50
2018-02-13T12:25:36.838Z,5.00
2018-02-13T12:26:40.144Z,2.50
2018-02-13T12:27:43.336Z,7.00
2018-02-13T12:28:47.350Z,3.00
2018-02-13T12:29:51.622Z,4.00
2018-02-13T12:30:55.963Z,6.00
2018-02-13T12:32:00.193Z,4.00
2018-02-13T12:33:04.662Z,0.50
2018-02-13T12:34:08.063Z,4.00
2018-02-13T12:35:12.282Z,4.00
2018-02-13T12:36:16.228Z,6.00
2018-02-13T12:37:19.274Z,5.00
2018-02-13T12:38:22.248Z,3.50
2018-02-13T12:39:25.421Z,3.50
2018-02-13T12:40:29.330Z,5.00
2018-02-13T12:41:33.722Z,4.00
2018-02-13T12:42:38.114Z,5.50
2018-02-13T12:43:41.492Z,3.50
2018-02-13T12:44:44.836Z,6.00
2018-02-13T12:45:48.118Z,4.00
2018-02-13T12:46:51.200Z,11.00
2018-02-13T12:47:54.887Z,6.00
2018-02-13T12:48:59.503Z,2.00
2018-02-13T12:50:02.552Z,3.00
2018-02-13T12:51:07.121Z,4.00
2018-02-13T12:52:11.516Z,4.00
2018-02-13T12:53:16.390Z,4.50
2018-02-13T12:54:20.426Z,2.00
2018-02-13T12:55:24.576Z,8.00
2018-02-13T12:56:28.675Z,3.50
2018-02-13T12:57:33.446Z,2.50
2018-02-13T12:58:37.996Z,3.00
2018-02-13T12:59:42.798Z,9.50
2018-02-13T13:00:46.669Z,2.00
2018-02-13T13:01:50.054Z,6.00
2018-02-13T13:02:53.809Z,5.00
2018-02-13T13:03:57.907Z,5.00
2018-02-13T13:05:00.848Z,3.00
2018-02-13T13:06:03.951Z,4.00
2018-02-13T13:07:07.292Z,5.00
2018-02-13T13:08:11.128Z,7.50
2018-02-13T13:09:15.106Z,3.50
2018-02-13T13:10:18.650Z,4.50
2018-02-13T13:11:22.019Z,5.00
2018-02-13T13:12:25.778Z,8.00
2018-02-13T13:13:30.150Z,4.00
2018-02-13T13:14:33.525Z,4.00
2018-02-13T13:15:37.434Z,5.50
2018-02-13T13:16:40.655Z,4.50
2018-02-13T13:17:43.955Z,3.50
2018-02-13T13:18:47.820Z,5.50
2018-02-13T13:19:51.444Z,5.50
2018-02-13T13:20:57.017Z,4.00
2018-02-13T13:22:01.144Z,4.00
2018-02-13T13:23:04.889Z,4.50
2018-02-13T13:24:08.173Z,4.00
2018-02-13T13:25:11.369Z,3.00
2018-02-13T13:26:14.749Z,4.50
2018-02-13T13:27:19.816Z,5.00
2018-02-13T13:28:24.441Z,4.50
2018-02-13T13:29:29.397Z,2.50
2018-02-13T13:30:34.357Z,6.00
2018-02-13T13:31:39.720Z,5.50
2018-02-13T13:32:45.477Z,2.50
2018-02-13T13:33:51.580Z,3.50
2018-02-13T13:34:56.166Z,2.00
2018-02-13T13:36:01.062Z,6.50
2018-02-13T13:37:05.644Z,4.00
2018-02-13T13:38:11.667Z,6.00
2018-02-13T13:39:15.158Z,4.00
2018-02-13T13:40:18.882Z,4.00
2018-02-13T13:41:23.344Z,2.00
2018-02-13T13:42:27.764Z,4.00
2018-02-13T13:43:32.665Z,2.00
2018-02-13T13:44:38.253Z,4.00
2018-02-13T13:45:43.693Z,2.00
2018-02-13T13:46:49.225Z,6.00
2018-02-13T13:47:54.651Z,2.00